createdAt,value
2018-07-01T00:00:56.973Z,57.29
2018-07-01T00:03:28.791Z,57.68
2018-07-01T00:04:28.965Z,57.39
2018-07-01T00:05:29.150Z,58.44
2018-07-01T00:06:29.345Z,58.54
2018-07-01T00:07:29.553Z,57.97
2018-07-01T00:08:29.752Z,57.87
2018-07-01T00:09:29.957Z,58.06
2018-07-01T00:10:30.165Z,57.97
2018-07-01T00:11:30.378Z,58.25
2018-07-01T00:12:30.575Z,58.34
2018-07-01T00:13:30.775Z,58.15
2018-07-01T00:14:30.992Z,58.34
2018-07-01T00:15:31.195Z,58.15
2018-07-01T00:16:31.386Z,58.34
2018-07-01T00:17:31.576Z,57.87
2018-07-01T00:18:31.764Z,58.15
2018-07-01T00:19:31.970Z,58.34
2018-07-01T00:20:32.154Z,58.34
2018-07-01T00:21:32.337Z,58.63
2018-07-01T00:22:32.522Z,58.54
2018-07-01T00:23:32.710Z,58.54
2018-07-01T00:24:32.906Z,58.44
2018-07-01T00:25:33.138Z,58.34
2018-07-01T00:26:33.331Z,58.54
2018-07-01T00:27:33.545Z,58.83
2018-07-01T00:28:33.736Z,58.54
2018-07-01T00:29:33.919Z,58.63
2018-07-01T00:30:34.125Z,58.34
2018-07-01T00:31:34.337Z,58.44
2018-07-01T00:32:34.587Z,58.92
2018-07-01T00:35:06.271Z,58.73
2018-07-01T00:36:06.449Z,58.44
2018-07-01T00:37:06.653Z,58.92
2018-07-01T00:38:06.869Z,58.34
2018-07-01T00:39:07.053Z,58.25
2018-07-01T00:40:07.244Z,58.06
2018-07-01T00:42:39.067Z,58.34
2018-07-01T00:43:39.238Z,58.34
2018-07-01T00:44:39.420Z,57.97
2018-07-01T00:45:39.619Z,58.06
2018-07-01T00:46:39.808Z,58.44
2018-07-01T00:47:40.006Z,58.34
2018-07-01T00:48:40.223Z,58.44
2018-07-01T00:49:40.428Z,58.15
2018-07-01T00:50:40.616Z,58.34
2018-07-01T00:51:40.811Z,58.44
2018-07-01T00:52:41.090Z,58.44
2018-07-01T00:53:41.173Z,58.34
2018-07-01T00:54:41.381Z,58.44
2018-07-01T00:55:41.575Z,59.30
2018-07-01T00:56:41.781Z,59.11
2018-07-01T00:57:41.973Z,59.01
2018-07-01T00:58:42.156Z,59.08
2018-07-01T01:01:14.356Z,59.56
2018-07-01T01:02:14.589Z,59.49
2018-07-01T01:04:46.547Z,59.49
2018-07-01T01:05:46.713Z,59.56
2018-07-01T01:06:46.913Z,59.66
2018-07-01T01:07:47.180Z,59.84
2018-07-01T01:08:47.249Z,60.04
2018-07-01T01:09:47.457Z,59.66
2018-07-01T01:10:47.643Z,60.23
2018-07-01T01:11:47.845Z,60.61
2018-07-01T01:12:48.043Z,60.71
2018-07-01T01:13:48.230Z,60.52
2018-07-01T01:14:48.438Z,61.09
2018-07-01T01:15:48.625Z,61.19
2018-07-01T01:16:48.803Z,60.99
2018-07-01T01:17:49.003Z,61.19
2018-07-01T01:18:49.199Z,60.99
2018-07-01T01:19:49.381Z,61.09
2018-07-01T01:22:21.483Z,60.71
2018-07-01T01:23:21.654Z,61.09
2018-07-01T01:24:21.848Z,60.99
2018-07-01T01:25:22.034Z,60.99
2018-07-01T01:26:22.242Z,60.80
2018-07-01T01:27:22.424Z,60.80
2018-07-01T01:28:22.618Z,60.80
2018-07-01T01:29:22.819Z,60.80
2018-07-01T01:30:23.024Z,60.90
2018-07-01T01:31:23.226Z,61.09
2018-07-01T01:32:23.434Z,60.90
2018-07-01T01:33:23.641Z,60.99
2018-07-01T01:34:23.833Z,61.09
2018-07-01T01:35:24.013Z,61.38
2018-07-01T01:36:24.198Z,61.19
2018-07-01T01:37:24.393Z,61.92
2018-07-01T01:38:24.594Z,62.11
2018-07-01T01:39:24.785Z,62.01
2018-07-01T01:40:25.004Z,62.21
2018-07-01T01:41:25.206Z,62.21
2018-07-01T01:42:25.405Z,62.78
2018-07-01T01:43:25.590Z,62.49
2018-07-01T01:44:25.772Z,62.59
2018-07-01T01:45:25.956Z,62.97
2018-07-01T01:46:26.146Z,62.68
2018-07-01T01:47:26.325Z,62.59
2018-07-01T01:48:26.508Z,62.68
2018-07-01T01:49:26.702Z,63.07
2018-07-01T01:50:26.908Z,63.16
2018-07-01T01:51:27.090Z,63.32
2018-07-01T01:52:27.271Z,62.84
2018-07-01T01:53:27.463Z,62.94
2018-07-01T01:54:27.663Z,63.23
2018-07-01T01:55:27.876Z,63.42
2018-07-01T01:56:28.055Z,63.23
2018-07-01T01:57:28.263Z,63.60
2018-07-01T01:58:28.469Z,63.70
2018-07-01T01:59:28.671Z,64.28
2018-07-01T02:00:28.866Z,63.70
2018-07-01T02:01:29.074Z,63.89
2018-07-01T02:02:29.258Z,63.99
2018-07-01T02:03:29.451Z,64.18
2018-07-01T02:04:29.647Z,64.28
2018-07-01T02:05:29.833Z,64.18
2018-07-01T02:08:01.932Z,64.47
2018-07-01T02:09:02.115Z,64.75
2018-07-01T02:10:02.327Z,64.47
2018-07-01T02:11:02.516Z,64.47
2018-07-01T02:12:02.715Z,64.09
2018-07-01T02:13:02.934Z,64.65
2018-07-01T02:14:03.143Z,64.65
2018-07-01T02:15:03.355Z,65.23
2018-07-01T02:16:03.557Z,64.91
2018-07-01T02:17:03.754Z,65.10
2018-07-01T02:18:03.951Z,65.20
2018-07-01T02:19:04.139Z,65.20
2018-07-01T02:20:04.345Z,65.48
2018-07-01T02:21:04.536Z,65.48
2018-07-01T02:22:04.723Z,65.67
2018-07-01T02:23:04.914Z,65.87
2018-07-01T02:25:37.038Z,65.39
2018-07-01T02:26:37.216Z,65.39
2018-07-01T02:27:37.414Z,65.30
2018-07-01T02:28:37.624Z,64.72
2018-07-01T02:29:37.818Z,64.81
2018-07-01T02:30:38.003Z,64.81
2018-07-01T02:33:10.121Z,64.85
2018-07-01T02:34:10.300Z,65.23
2018-07-01T02:35:10.567Z,64.56
2018-07-01T02:36:10.631Z,65.20
2018-07-01T02:37:10.826Z,65.58
2018-07-01T02:38:11.030Z,65.52
2018-07-01T02:39:11.239Z,65.42
2018-07-01T02:40:11.445Z,65.42
2018-07-01T02:41:11.646Z,65.52
2018-07-01T02:42:11.845Z,65.71
2018-07-01T02:43:12.039Z,65.67
2018-07-01T02:44:12.259Z,64.85
2018-07-01T02:45:12.463Z,65.14
2018-07-01T02:47:45.359Z,65.33
2018-07-01T02:48:45.529Z,65.23
2018-07-01T02:49:45.714Z,64.47
2018-07-01T02:50:45.928Z,64.75
2018-07-01T02:51:46.125Z,64.56
2018-07-01T02:52:46.325Z,64.65
2018-07-01T02:53:46.583Z,64.85
2018-07-01T02:54:46.726Z,64.37
2018-07-01T02:55:46.926Z,64.28
2018-07-01T02:56:47.135Z,64.37
2018-07-01T02:57:47.321Z,64.85
2018-07-01T03:00:20.149Z,64.75
2018-07-01T03:01:20.326Z,64.65
2018-07-01T03:02:20.510Z,64.65
2018-07-01T03:03:20.702Z,64.85
2018-07-01T03:04:20.895Z,64.85
2018-07-01T03:05:21.102Z,64.75
2018-07-01T03:06:21.298Z,64.85
2018-07-01T03:07:21.494Z,64.85
2018-07-01T03:08:21.682Z,64.85
2018-07-01T03:09:21.884Z,65.61
2018-07-01T03:10:22.091Z,65.33
2018-07-01T03:11:22.274Z,65.33
2018-07-01T03:12:22.480Z,65.23
2018-07-01T03:13:22.676Z,65.52
2018-07-01T03:14:22.873Z,65.33
2018-07-01T03:15:23.076Z,64.56
2018-07-01T03:16:23.254Z,64.85
2018-07-01T03:17:23.454Z,65.14
2018-07-01T03:18:23.658Z,65.14
2018-07-01T03:19:23.861Z,65.33
2018-07-01T03:20:24.058Z,65.23
2018-07-01T03:21:24.268Z,65.52
2018-07-01T03:22:24.456Z,65.39
2018-07-01T03:23:24.639Z,65.52
2018-07-01T03:24:24.826Z,65.96
2018-07-01T03:25:25.011Z,65.96
2018-07-01T03:26:25.210Z,65.87
2018-07-01T03:27:25.396Z,66.35
2018-07-01T03:28:25.595Z,66.92
2018-07-01T03:29:25.781Z,67.01
2018-07-01T03:30:25.978Z,67.40
2018-07-01T03:31:26.165Z,67.40
2018-07-01T03:32:26.358Z,67.55
2018-07-01T03:33:26.560Z,68.32
2018-07-01T03:34:26.764Z,69.08
2018-07-01T03:35:26.948Z,69.08
2018-07-01T03:36:27.154Z,68.88
2018-07-01T03:37:27.353Z,69.74
2018-07-01T03:38:27.546Z,70.28
2018-07-01T03:39:27.726Z,70.28
2018-07-01T03:40:27.931Z,70.00
2018-07-01T03:41:28.124Z,70.76
2018-07-01T03:42:28.331Z,70.95
2018-07-01T03:43:28.535Z,71.62
2018-07-01T03:44:28.733Z,71.72
2018-07-01T03:45:28.940Z,71.62
2018-07-01T03:46:29.155Z,72.19
2018-07-01T03:47:29.341Z,72.00
2018-07-01T03:48:30.123Z,71.91
2018-07-01T03:49:29.709Z,72.00
2018-07-01T03:50:29.920Z,71.81
2018-07-01T03:51:30.103Z,71.14
2018-07-01T03:52:30.308Z,70.28
2018-07-01T03:53:30.579Z,70.57
2018-07-01T03:54:30.667Z,69.84
2018-07-01T03:55:30.874Z,69.08
2018-07-01T03:56:31.079Z,69.27
2018-07-01T03:57:31.285Z,68.51
2018-07-01T03:58:31.487Z,68.16
2018-07-01T03:59:31.678Z,68.44
2018-07-01T04:00:31.871Z,68.63
2018-07-01T04:01:32.056Z,69.49
2018-07-01T04:02:32.265Z,69.21
2018-07-01T04:03:32.474Z,68.92
2018-07-01T04:04:32.812Z,68.92
2018-07-01T04:05:32.881Z,68.48
2018-07-01T04:06:33.086Z,67.62
2018-07-01T04:07:33.276Z,67.24
2018-07-01T04:08:33.458Z,66.60
2018-07-01T04:09:33.671Z,66.22
2018-07-01T04:10:33.865Z,65.30
2018-07-01T04:11:34.067Z,64.62
2018-07-01T04:12:34.269Z,64.34
2018-07-01T04:13:34.436Z,64.28
2018-07-01T04:14:34.621Z,63.70
2018-07-01T04:15:34.828Z,61.98
2018-07-01T04:16:35.037Z,62.20
2018-07-01T04:17:35.245Z,60.83
2018-07-01T04:18:35.452Z,58.69
2018-07-01T04:19:35.646Z,56.73
2018-07-01T04:20:35.839Z,54.28
2018-07-01T04:21:36.053Z,52.61
2018-07-01T04:22:36.239Z,50.71
2018-07-01T04:23:36.431Z,48.83
2018-07-01T04:24:36.615Z,46.73
2018-07-01T04:25:36.815Z,45.31
2018-07-01T04:26:37.014Z,43.91
2018-07-01T04:27:37.204Z,42.19
2018-07-01T04:28:37.415Z,41.61
2018-07-01T04:29:37.624Z,42.77
2018-07-01T04:30:37.832Z,42.56
2018-07-01T04:31:38.020Z,43.79
2018-07-01T04:32:38.229Z,45.41
2018-07-01T04:33:38.406Z,44.85
2018-07-01T04:34:38.594Z,44.27
2018-07-01T04:35:38.791Z,45.70
2018-07-01T04:36:38.997Z,47.03
2018-07-01T04:37:39.210Z,45.62
2018-07-01T04:40:11.332Z,47.85
2018-07-01T04:41:11.504Z,48.11
2018-07-01T04:42:11.726Z,47.08
2018-07-01T04:43:11.927Z,47.49
2018-07-01T04:44:12.135Z,47.80
2018-07-01T04:45:12.346Z,47.14
2018-07-01T04:46:12.558Z,47.07
2018-07-01T04:47:12.769Z,45.14
2018-07-01T04:48:12.975Z,44.10
2018-07-01T04:49:13.228Z,45.41
2018-07-01T04:50:13.365Z,45.39
2018-07-01T04:51:13.555Z,47.00
2018-07-01T04:52:13.769Z,47.60
2018-07-01T04:53:13.960Z,47.82
2018-07-01T04:54:14.153Z,47.17
2018-07-01T04:55:14.437Z,43.81
2018-07-01T04:56:14.574Z,42.19
2018-07-01T04:57:14.788Z,41.81
2018-07-01T04:58:14.984Z,43.67
2018-07-01T04:59:15.175Z,45.53
2018-07-01T05:00:15.360Z,45.43
2018-07-01T05:01:15.578Z,43.14
2018-07-01T05:02:15.818Z,44.46
2018-07-01T05:03:15.973Z,45.41
2018-07-01T05:04:16.176Z,46.01
2018-07-01T05:05:16.372Z,44.27
2018-07-01T05:06:16.565Z,45.43
2018-07-01T05:07:16.755Z,45.92
2018-07-01T05:08:17.070Z,44.12
2018-07-01T05:09:17.154Z,42.89
2018-07-01T05:10:17.365Z,40.86
2018-07-01T05:11:17.565Z,40.09
2018-07-01T05:12:17.781Z,40.75
2018-07-01T05:13:17.995Z,41.42
2018-07-01T05:14:18.192Z,41.30
2018-07-01T05:15:18.380Z,42.88
2018-07-01T05:16:18.584Z,44.25
2018-07-01T05:17:18.775Z,42.36
2018-07-01T05:18:18.992Z,41.05
2018-07-01T05:19:19.209Z,41.15
2018-07-01T05:20:19.421Z,39.47
2018-07-01T05:21:19.609Z,40.22
2018-07-01T05:22:19.805Z,43.02
2018-07-01T05:23:20.013Z,40.98
2018-07-01T05:24:20.201Z,41.82
2018-07-01T05:25:20.391Z,44.11
2018-07-01T05:26:20.602Z,44.25
2018-07-01T05:27:20.837Z,43.02
2018-07-01T05:28:21.027Z,42.15
2018-07-01T05:29:21.232Z,42.47
2018-07-01T05:30:21.434Z,43.27
2018-07-01T05:31:21.640Z,42.08
2018-07-01T05:32:21.843Z,41.91
2018-07-01T05:33:22.062Z,40.78
2018-07-01T05:34:22.271Z,40.96
2018-07-01T05:35:22.485Z,41.15
2018-07-01T05:36:22.676Z,38.60
2018-07-01T05:37:22.897Z,38.43
2018-07-01T05:38:23.102Z,39.90
2018-07-01T05:39:23.312Z,39.78
2018-07-01T05:40:23.521Z,39.22
2018-07-01T05:42:55.355Z,39.36
2018-07-01T05:43:55.534Z,38.68
2018-07-01T05:44:55.753Z,40.05
2018-07-01T05:45:55.944Z,40.57
2018-07-01T05:46:56.141Z,40.72
2018-07-01T05:47:56.350Z,40.67
2018-07-01T05:48:56.566Z,40.36
2018-07-01T05:49:56.778Z,39.99
2018-07-01T05:50:56.971Z,39.14
2018-07-01T05:51:57.162Z,39.55
2018-07-01T05:52:57.360Z,38.68
2018-07-01T05:53:57.563Z,39.61
2018-07-01T05:54:57.764Z,41.05
2018-07-01T05:55:57.992Z,42.36
2018-07-01T05:56:58.188Z,41.67
2018-07-01T05:57:58.381Z,42.39
2018-07-01T05:58:58.590Z,39.99
2018-07-01T05:59:58.781Z,40.65
2018-07-01T06:00:58.997Z,40.86
2018-07-01T06:01:59.205Z,41.09
2018-07-01T06:02:59.402Z,38.12
2018-07-01T06:03:59.614Z,38.50
2018-07-01T06:04:59.824Z,38.43
2018-07-01T06:06:00.042Z,36.62
2018-07-01T06:07:00.262Z,36.58
2018-07-01T06:08:00.481Z,37.73
2018-07-01T06:09:00.672Z,39.69
2018-07-01T06:10:00.889Z,40.80
2018-07-01T06:11:01.085Z,41.55
2018-07-01T06:12:01.299Z,41.52
2018-07-01T06:13:01.491Z,41.02
2018-07-01T06:14:01.763Z,42.10
2018-07-01T06:15:01.929Z,41.42
2018-07-01T06:16:02.125Z,40.23
2018-07-01T06:17:02.344Z,41.17
2018-07-01T06:18:02.575Z,39.26
2018-07-01T06:19:02.795Z,39.62
2018-07-01T06:20:03.020Z,40.39
2018-07-01T06:21:03.221Z,42.49
2018-07-01T06:22:03.412Z,43.29
2018-07-01T06:23:03.608Z,42.97
2018-07-01T06:24:03.814Z,44.52
2018-07-01T06:25:04.023Z,42.94
2018-07-01T06:26:04.229Z,42.13
2018-07-01T06:27:04.424Z,42.76
2018-07-01T06:28:04.635Z,43.82
2018-07-01T06:30:36.469Z,45.68
2018-07-01T06:31:36.649Z,45.36
2018-07-01T06:32:36.848Z,44.27
2018-07-01T06:33:37.061Z,42.39
2018-07-01T06:34:37.265Z,41.30
2018-07-01T06:35:37.456Z,41.13
2018-07-01T06:36:37.674Z,41.35
2018-07-01T06:37:37.874Z,40.75
2018-07-01T06:38:38.068Z,40.98
2018-07-01T06:39:38.282Z,39.69
2018-07-01T06:40:38.485Z,41.30
2018-07-01T06:41:38.699Z,40.72
2018-07-01T06:42:38.914Z,40.94
2018-07-01T06:43:39.122Z,40.96
2018-07-01T06:44:39.339Z,40.47
2018-07-01T06:45:39.549Z,39.53
2018-07-01T06:46:39.745Z,38.54
2018-07-01T06:47:39.949Z,39.14
2018-07-01T06:48:40.156Z,39.28
2018-07-01T06:49:40.353Z,38.18
2018-07-01T06:50:40.545Z,39.26
2018-07-01T06:53:12.796Z,37.40
2018-07-01T06:54:12.844Z,38.56
2018-07-01T06:55:13.063Z,39.99
2018-07-01T06:56:13.278Z,39.14
2018-07-01T06:57:13.473Z,37.73
2018-07-01T06:58:13.683Z,37.63
2018-07-01T06:59:13.880Z,38.02
2018-07-01T07:00:14.093Z,38.41
2018-07-01T07:01:14.307Z,38.46
2018-07-01T07:02:14.525Z,39.43
2018-07-01T07:03:14.721Z,39.66
2018-07-01T07:04:14.926Z,39.66
2018-07-01T07:05:15.138Z,38.46
2018-07-01T07:06:15.364Z,37.96
2018-07-01T07:07:15.553Z,38.45
2018-07-01T07:08:15.745Z,38.16
2018-07-01T07:09:15.955Z,39.76
2018-07-01T07:10:16.172Z,40.45
2018-07-01T07:11:16.380Z,39.32
2018-07-01T07:12:16.583Z,38.62
2018-07-01T07:13:16.785Z,39.82
2018-07-01T07:14:16.974Z,38.16
2018-07-01T07:15:17.200Z,38.20
2018-07-01T07:16:17.423Z,37.37
2018-07-01T07:17:17.585Z,39.47
2018-07-01T07:18:17.813Z,39.66
2018-07-01T07:19:18.039Z,40.97
2018-07-01T07:20:18.252Z,40.26
2018-07-01T07:21:18.472Z,39.39
2018-07-01T07:22:18.665Z,39.80
2018-07-01T07:23:18.872Z,39.28
2018-07-01T07:24:19.079Z,39.64
2018-07-01T07:25:19.273Z,40.03
2018-07-01T07:26:19.482Z,39.18
2018-07-01T07:27:19.680Z,39.29
2018-07-01T07:28:19.897Z,39.78
2018-07-01T07:29:20.091Z,38.43
2018-07-01T07:30:20.294Z,39.29
2018-07-01T07:31:20.494Z,38.74
2018-07-01T07:32:20.691Z,38.23
2018-07-01T07:33:20.891Z,37.98
2018-07-01T07:34:21.108Z,37.96
2018-07-01T07:35:21.314Z,38.04
2018-07-01T07:36:21.537Z,37.67
2018-07-01T07:37:21.735Z,37.46
2018-07-01T07:38:21.956Z,37.73
2018-07-01T07:39:22.161Z,39.26
2018-07-01T07:40:22.354Z,38.31
2018-07-01T07:41:22.648Z,37.77
2018-07-01T07:42:22.744Z,36.69
2018-07-01T07:43:22.972Z,37.96
2018-07-01T07:44:23.198Z,39.24
2018-07-01T07:45:23.405Z,40.24
2018-07-01T07:46:23.609Z,39.26
2018-07-01T07:47:23.832Z,39.14
2018-07-01T07:48:24.043Z,38.39
2018-07-01T07:49:24.266Z,37.35
2018-07-01T07:50:24.471Z,38.87
2018-07-01T07:51:24.681Z,37.91
2018-07-01T07:52:24.894Z,37.04
2018-07-01T07:53:25.124Z,34.86
2018-07-01T07:54:25.354Z,36.21
2018-07-01T07:55:25.539Z,36.01
2018-07-01T07:56:25.745Z,36.13
2018-07-01T07:57:25.963Z,35.37
2018-07-01T07:58:26.174Z,35.20
2018-07-01T07:59:26.374Z,35.18
2018-07-01T08:00:26.585Z,34.71
2018-07-01T08:01:26.797Z,34.28
2018-07-01T08:02:26.996Z,33.80
2018-07-01T08:03:27.205Z,33.87
2018-07-01T08:04:27.420Z,33.10
2018-07-01T08:05:27.620Z,34.63
2018-07-01T08:06:27.832Z,34.23
2018-07-01T08:07:28.113Z,34.25
2018-07-01T08:08:28.245Z,35.76
2018-07-01T08:09:28.465Z,34.99
2018-07-01T08:10:28.683Z,34.94
2018-07-01T08:11:28.962Z,36.48
2018-07-01T08:12:29.034Z,36.21
2018-07-01T08:13:29.226Z,35.84
2018-07-01T08:14:29.451Z,36.71
2018-07-01T08:15:29.654Z,35.64
2018-07-01T08:16:29.877Z,34.39
2018-07-01T08:17:30.094Z,34.68
2018-07-01T08:18:30.313Z,35.42
2018-07-01T08:19:30.535Z,36.46
2018-07-01T08:20:30.744Z,35.74
2018-07-01T08:21:30.952Z,35.45
2018-07-01T08:22:31.217Z,34.68
2018-07-01T08:23:31.308Z,34.39
2018-07-01T08:24:31.529Z,33.84
2018-07-01T08:25:31.749Z,32.62
2018-07-01T08:26:31.972Z,31.63
2018-07-01T08:27:32.171Z,32.78
2018-07-01T08:28:32.365Z,32.47
2018-07-01T08:29:32.594Z,31.63
2018-07-01T08:30:32.815Z,31.44
2018-07-01T08:31:33.019Z,32.59
2018-07-01T08:34:04.867Z,33.65
2018-07-01T08:35:05.130Z,32.79
2018-07-01T08:36:05.228Z,32.41
2018-07-01T08:37:05.431Z,33.10
2018-07-01T08:38:06.339Z,32.89
2018-07-01T08:39:05.848Z,32.68
2018-07-01T08:40:06.055Z,33.31
2018-07-01T08:41:06.264Z,34.12
2018-07-01T08:42:06.471Z,35.23
2018-07-01T08:43:06.698Z,32.26
2018-07-01T08:44:06.892Z,31.62
2018-07-01T08:45:07.111Z,33.75
2018-07-01T08:46:07.332Z,33.28
2018-07-01T08:47:07.541Z,32.41
2018-07-01T08:48:07.763Z,31.81
2018-07-01T08:49:07.965Z,32.18
2018-07-01T08:50:08.169Z,31.62
2018-07-01T08:51:08.384Z,31.63
2018-07-01T08:52:08.594Z,31.28
2018-07-01T08:53:08.805Z,31.94
2018-07-01T08:54:09.030Z,32.54
2018-07-01T08:55:09.199Z,29.73
2018-07-01T08:56:09.416Z,29.37
2018-07-01T08:57:09.623Z,28.81
2018-07-01T08:58:09.822Z,29.66
2018-07-01T08:59:10.842Z,28.43
2018-07-01T09:00:10.223Z,28.90
2018-07-01T09:01:10.445Z,29.26
2018-07-01T09:03:42.584Z,30.99
2018-07-01T09:04:42.770Z,29.34
2018-07-01T09:05:42.999Z,29.91
2018-07-01T09:06:43.199Z,30.76
2018-07-01T09:07:43.403Z,29.92
2018-07-01T09:08:43.706Z,31.25
2018-07-01T09:09:43.835Z,32.67
2018-07-01T09:10:44.044Z,32.87
2018-07-01T09:11:44.267Z,32.62
2018-07-01T09:12:44.482Z,30.79
2018-07-01T09:13:44.683Z,29.44
2018-07-01T09:14:44.885Z,29.06
2018-07-01T09:15:45.093Z,31.04
2018-07-01T09:16:45.288Z,32.62
2018-07-01T09:17:45.483Z,31.09
2018-07-01T09:18:45.690Z,30.99
2018-07-01T09:19:45.901Z,31.16
2018-07-01T09:20:46.106Z,31.44
2018-07-01T09:21:46.331Z,31.56
2018-07-01T09:22:46.546Z,32.04
2018-07-01T09:23:46.764Z,31.57
2018-07-01T09:24:46.958Z,31.52
2018-07-01T09:25:47.187Z,31.60
2018-07-01T09:26:47.390Z,32.36
2018-07-01T09:27:47.596Z,33.20
2018-07-01T09:28:47.841Z,33.36
2018-07-01T09:29:48.016Z,33.54
2018-07-01T09:30:48.216Z,33.83
2018-07-01T09:31:48.417Z,33.84
2018-07-01T09:32:48.640Z,33.15
2018-07-01T09:33:48.876Z,33.04
2018-07-01T09:34:49.082Z,33.33
2018-07-01T09:35:49.287Z,32.65
2018-07-01T09:36:49.494Z,34.00
2018-07-01T09:37:49.704Z,32.67
2018-07-01T09:38:49.898Z,31.67
2018-07-01T09:39:50.126Z,32.34
2018-07-01T09:40:50.342Z,33.25
2018-07-01T09:41:50.546Z,31.78
2018-07-01T09:42:50.744Z,32.87
2018-07-01T09:43:50.970Z,31.04
2018-07-01T09:44:51.158Z,32.78
2018-07-01T09:45:51.383Z,32.71
2018-07-01T09:46:51.607Z,31.18
2018-07-01T09:47:51.799Z,30.69
2018-07-01T09:48:52.024Z,29.43
2018-07-01T09:49:52.241Z,31.02
2018-07-01T09:50:52.435Z,30.94
2018-07-01T09:51:52.648Z,30.98
2018-07-01T09:52:52.870Z,29.43
2018-07-01T09:53:53.092Z,30.75
2018-07-01T09:54:53.307Z,31.76
2018-07-01T09:55:53.520Z,31.50
2018-07-01T09:56:53.736Z,29.30
2018-07-01T09:57:53.956Z,29.64
2018-07-01T09:58:54.168Z,29.88
2018-07-01T09:59:54.403Z,31.23
2018-07-01T10:00:54.638Z,32.04
2018-07-01T10:01:54.845Z,31.33
2018-07-01T10:02:55.055Z,32.12
2018-07-01T10:03:55.276Z,30.78
2018-07-01T10:04:55.481Z,30.58
2018-07-01T10:05:55.677Z,30.44
2018-07-01T10:06:55.895Z,28.80
2018-07-01T10:07:56.098Z,29.61
2018-07-01T10:08:56.313Z,29.68
2018-07-01T10:09:56.504Z,29.48
2018-07-01T10:10:56.703Z,29.32
2018-07-01T10:11:56.957Z,31.74
2018-07-01T10:12:57.141Z,31.63
2018-07-01T10:13:57.343Z,32.81
2018-07-01T10:14:57.541Z,30.10
2018-07-01T10:15:57.763Z,31.34
2018-07-01T10:16:57.967Z,31.05
2018-07-01T10:17:58.172Z,31.02
2018-07-01T10:18:58.383Z,31.43
2018-07-01T10:19:58.590Z,32.31
2018-07-01T10:20:58.785Z,32.12
2018-07-01T10:21:59.001Z,31.26
2018-07-01T10:22:59.219Z,29.43
2018-07-01T10:23:59.421Z,30.78
2018-07-01T10:24:59.646Z,30.57
2018-07-01T10:25:59.866Z,31.26
2018-07-01T10:27:00.060Z,30.78
2018-07-01T10:28:00.252Z,31.52
2018-07-01T10:29:00.450Z,32.76
2018-07-01T10:30:00.704Z,33.34
2018-07-01T10:31:00.804Z,34.42
2018-07-01T10:32:00.999Z,33.36
2018-07-01T10:33:01.222Z,33.55
2018-07-01T10:34:01.417Z,31.81
2018-07-01T10:35:01.629Z,31.81
2018-07-01T10:36:01.827Z,33.17
2018-07-01T10:37:02.014Z,33.83
2018-07-01T10:38:02.223Z,33.68
2018-07-01T10:39:02.418Z,36.40
2018-07-01T10:40:02.607Z,35.94
2018-07-01T10:41:02.817Z,34.66
2018-07-01T10:42:03.036Z,33.72
2018-07-01T10:43:03.232Z,33.91
2018-07-01T10:44:03.426Z,33.33
2018-07-01T10:45:03.625Z,34.20
2018-07-01T10:46:03.825Z,34.00
2018-07-01T10:47:04.019Z,34.78
2018-07-01T10:48:04.234Z,32.34
2018-07-01T10:49:04.449Z,33.12
2018-07-01T10:50:04.665Z,34.39
2018-07-01T10:51:04.876Z,34.39
2018-07-01T10:52:05.067Z,34.10
2018-07-01T10:53:05.275Z,34.29
2018-07-01T10:54:05.465Z,34.84
2018-07-01T10:55:05.686Z,35.44
2018-07-01T10:56:05.904Z,34.76
2018-07-01T10:57:06.104Z,35.14
2018-07-01T10:58:06.316Z,35.74
2018-07-01T10:59:06.520Z,34.45
2018-07-01T11:00:06.723Z,35.05
2018-07-01T11:01:06.936Z,35.26
2018-07-01T11:02:07.151Z,34.79
2018-07-01T11:03:07.365Z,34.31
2018-07-01T11:04:07.586Z,32.92
2018-07-01T11:05:07.804Z,34.38
2018-07-01T11:06:08.127Z,35.37
2018-07-01T11:07:08.218Z,34.78
2018-07-01T11:08:08.427Z,34.47
2018-07-01T11:09:08.617Z,33.68
2018-07-01T11:10:08.810Z,35.05
2018-07-01T11:11:09.002Z,35.64
2018-07-01T11:12:09.197Z,33.81
2018-07-01T11:13:09.411Z,32.92
2018-07-01T11:14:09.607Z,32.71
2018-07-01T11:15:09.803Z,33.60
2018-07-01T11:16:10.007Z,34.76
2018-07-01T11:17:10.207Z,35.37
2018-07-01T11:18:10.418Z,34.38
2018-07-01T11:19:10.627Z,34.74
2018-07-01T11:20:10.853Z,33.81
2018-07-01T11:21:11.046Z,33.14
2018-07-01T11:22:11.241Z,34.60
2018-07-01T11:23:11.454Z,34.71
2018-07-01T11:24:11.657Z,33.26
2018-07-01T11:25:11.864Z,33.75
2018-07-01T11:26:12.068Z,35.00
2018-07-01T11:27:12.409Z,33.84
2018-07-01T11:28:12.501Z,33.81
2018-07-01T11:29:12.684Z,34.39
2018-07-01T11:30:12.895Z,34.12
2018-07-01T11:31:13.112Z,34.81
2018-07-01T11:32:13.313Z,32.68
2018-07-01T11:33:13.544Z,33.15
2018-07-01T11:34:13.746Z,33.54
2018-07-01T11:35:13.944Z,34.89
2018-07-01T11:36:14.128Z,35.29
2018-07-01T11:37:14.322Z,32.57
2018-07-01T11:38:14.573Z,32.62
2018-07-01T11:39:14.747Z,34.56
2018-07-01T11:40:14.954Z,34.28
2018-07-01T11:41:15.186Z,35.86
2018-07-01T11:42:15.383Z,34.13
2018-07-01T11:43:15.595Z,33.44
2018-07-01T11:44:15.787Z,31.68
2018-07-01T11:45:15.980Z,33.22
2018-07-01T11:46:16.193Z,35.18
2018-07-01T11:47:16.407Z,34.50
2018-07-01T11:48:16.605Z,33.17
2018-07-01T11:49:16.796Z,32.57
2018-07-01T11:50:16.997Z,33.15
2018-07-01T11:51:17.197Z,32.97
2018-07-01T11:52:17.416Z,32.76
2018-07-01T11:53:17.599Z,32.96
2018-07-01T11:54:17.805Z,31.41
2018-07-01T11:55:18.020Z,32.09
2018-07-01T11:56:18.245Z,33.07
2018-07-01T11:57:18.459Z,33.55
2018-07-01T11:58:18.677Z,32.39
2018-07-01T11:59:18.895Z,31.23
2018-07-01T12:00:19.129Z,31.04
2018-07-01T12:01:19.330Z,32.01
2018-07-01T12:02:19.531Z,32.68
2018-07-01T12:03:19.726Z,31.52
2018-07-01T12:04:19.946Z,30.94
2018-07-01T12:05:20.190Z,32.89
2018-07-01T12:06:20.365Z,32.79
2018-07-01T12:07:20.567Z,31.52
2018-07-01T12:08:20.774Z,31.60
2018-07-01T12:09:20.955Z,31.70
2018-07-01T12:10:21.145Z,32.78
2018-07-01T12:11:21.361Z,31.71
2018-07-01T12:12:21.569Z,31.83
2018-07-01T12:13:21.770Z,31.71
2018-07-01T12:14:21.985Z,30.83
2018-07-01T12:15:22.179Z,32.09
2018-07-01T12:16:22.372Z,32.67
2018-07-01T12:17:22.646Z,32.87
2018-07-01T12:18:22.740Z,32.60
2018-07-01T12:19:22.927Z,33.59
2018-07-01T12:20:23.129Z,31.44
2018-07-01T12:21:23.346Z,30.96
2018-07-01T12:22:23.549Z,32.89
2018-07-01T12:23:23.787Z,32.49
2018-07-01T12:24:23.935Z,33.67
2018-07-01T12:25:24.165Z,32.70
2018-07-01T12:26:24.384Z,32.71
2018-07-01T12:27:24.598Z,32.99
2018-07-01T12:28:24.802Z,31.33
2018-07-01T12:29:25.008Z,32.76
2018-07-01T12:30:25.215Z,32.38
2018-07-01T12:31:25.411Z,32.18
2018-07-01T12:32:25.608Z,32.78
2018-07-01T12:33:25.812Z,32.67
2018-07-01T12:34:26.016Z,32.01
2018-07-01T12:35:26.236Z,31.99
2018-07-01T12:36:26.444Z,31.41
2018-07-01T12:37:26.656Z,31.51
2018-07-01T12:38:26.861Z,32.18
2018-07-01T12:39:27.117Z,32.97
2018-07-01T12:40:27.212Z,32.49
2018-07-01T12:41:27.412Z,31.91
2018-07-01T12:42:27.667Z,31.62
2018-07-01T12:43:27.847Z,31.12
2018-07-01T12:44:28.048Z,31.60
2018-07-01T12:45:28.259Z,32.10
2018-07-01T12:46:28.456Z,31.22
2018-07-01T12:47:28.654Z,31.12
2018-07-01T12:48:28.848Z,31.60
2018-07-01T12:49:29.064Z,32.86
2018-07-01T12:50:29.260Z,31.59
2018-07-01T12:51:29.456Z,31.78
2018-07-01T12:52:29.674Z,31.59
2018-07-01T12:55:01.790Z,30.83
2018-07-01T12:56:01.974Z,31.41
2018-07-01T12:57:02.164Z,33.26
2018-07-01T12:58:02.371Z,31.05
2018-07-01T12:59:02.581Z,31.54
2018-07-01T13:00:02.773Z,30.66
2018-07-01T13:01:02.975Z,30.85
2018-07-01T13:02:03.195Z,31.13
2018-07-01T13:03:03.397Z,32.29
2018-07-01T13:04:03.596Z,33.18
2018-07-01T13:05:03.803Z,32.60
2018-07-01T13:06:04.001Z,31.52
2018-07-01T13:07:04.195Z,31.51
2018-07-01T13:08:04.406Z,32.01
2018-07-01T13:09:04.606Z,31.60
2018-07-01T13:10:04.813Z,31.80
2018-07-01T13:11:05.030Z,31.41
2018-07-01T13:12:05.288Z,32.59
2018-07-01T13:13:05.441Z,32.01
2018-07-01T13:14:05.633Z,33.07
2018-07-01T13:15:05.824Z,32.79
2018-07-01T13:16:06.036Z,32.02
2018-07-01T13:17:06.242Z,31.63
2018-07-01T13:18:06.437Z,32.70
2018-07-01T13:19:06.651Z,31.71
2018-07-01T13:20:06.862Z,32.29
2018-07-01T13:21:07.065Z,31.62
2018-07-01T13:22:07.312Z,33.09
2018-07-01T13:23:07.516Z,32.70